Time;durP1;ratioP1;P1;durP2;ratioP2;P2;SDS_P1;SDS_P2;PMS_P1;PMS_P2;Temp;Humidity;BMP_temperature;BMP_pressure;BME280_temperature;BME280_humidity;BME280_pressure;Samples;Min_cycle;Max_cycle;Signal;HPM_P1;HPM_P2
2022/09/29 00:01:08;;;;;;;4.72;2.67;;;6.60;93.90;;;;;;5035914;28;20025;-65
2022/09/29 00:03:34;;;;;;;6.03;2.72;;;6.60;93.40;;;;;;5036392;28;20402;-65
2022/09/29 00:06:00;;;;;;;5.80;3.05;;;6.70;94.00;;;;;;5034962;28;20083;-65
2022/09/29 00:08:28;;;;;;;5.95;3.00;;;6.70;94.20;;;;;;5034539;28;20028;-65
2022/09/29 00:10:54;;;;;;;7.47;2.60;;;6.70;94.60;;;;;;5030603;28;20419;-65
2022/09/29 00:13:20;;;;;;;7.38;2.90;;;6.70;94.10;;;;;;5028438;28;20040;-65
2022/09/29 00:15:58;;;;;;;7.82;2.97;;;6.70;94.00;;;;;;5036094;28;20028;-65
2022/09/29 00:18:24;;;;;;;4.70;2.40;;;6.70;94.70;;;;;;5022272;28;20029;-66
2022/09/29 00:20:57;;;;;;;5.97;2.47;;;6.70;94.40;;;;;;5038992;28;20079;-65
2022/09/29 00:23:23;;;;;;;5.23;2.83;;;6.80;95.30;;;;;;5031851;28;20053;-65
2022/09/29 00:26:05;;;;;;;5.80;2.67;;;6.80;94.70;;;;;;5031953;28;20025;-65
2022/09/29 00:28:32;;;;;;;5.95;3.55;;;6.80;94.20;;;;;;5028253;28;20117;-65
2022/09/29 00:31:00;;;;;;;6.35;2.63;;;6.80;93.80;;;;;;5034425;28;20338;-65
2022/09/29 00:33:30;;;;;;;6.65;3.10;;;6.80;93.70;;;;;;5032192;28;20029;-65
2022/09/29 00:36:01;;;;;;;5.95;2.70;;;6.70;94.00;;;;;;5030404;28;20399;-65
2022/09/29 00:38:28;;;;;;;6.93;2.63;;;6.80;93.80;;;;;;5034547;28;20076;-65
2022/09/29 00:40:53;;;;;;;6.63;2.70;;;6.80;94.40;;;;;;5024730;28;20020;-65
2022/09/29 00:43:24;;;;;;;5.95;2.60;;;6.80;94.30;;;;;;5034271;28;20314;-65
2022/09/29 00:45:53;;;;;;;8.27;2.70;;;6.80;94.00;;;;;;5028445;28;20378;-65
2022/09/29 00:48:28;;;;;;;6.10;3.00;;;6.80;93.80;;;;;;5030278;28;20030;-65
2022/09/29 00:50:54;;;;;;;5.75;2.47;;;6.70;93.50;;;;;;5033241;28;20104;-65
2022/09/29 00:53:22;;;;;;;6.93;2.63;;;6.80;93.50;;;;;;5033676;28;20029;-65
2022/09/29 00:56:10;;;;;;;7.35;2.72;;;6.80;93.70;;;;;;5028256;28;20452;-65
2022/09/29 00:58:42;;;;;;;6.20;2.78;;;6.70;93.40;;;;;;5032515;28;20048;-65
2022/09/29 01:01:08;;;;;;;5.88;2.97;;;6.70;93.10;;;;;;5036467;28;20021;-65
2022/09/29 01:03:38;;;;;;;6.35;3.00;;;6.60;92.80;;;;;;5022589;28;20030;-65
2022/09/29 01:06:34;;;;;;;7.43;2.50;;;6.60;92.50;;;;;;5033624;28;20032;-65
2022/09/29 01:09:03;;;;;;;6.10;2.72;;;6.60;92.00;;;;;;5020780;28;20030;-65
2022/09/29 01:11:30;;;;;;;7.00;3.00;;;6.60;91.60;;;;;;5029112;28;20038;-65
2022/09/29 01:14:02;;;;;;;5.60;2.85;;;6.60;91.30;;;;;;5026761;28;20025;-64
2022/09/29 01:16:29;;;;;;;5.53;3.03;;;6.60;91.50;;;;;;5034172;28;20033;-65
2022/09/29 01:18:56;;;;;;;4.07;2.45;;;6.60;91.80;;;;;;5031808;28;20049;-65
2022/09/29 01:21:40;;;;;;;6.05;3.00;;;6.60;91.50;;;;;;5033655;28;20040;-65
2022/09/29 01:24:37;;;;;;;7.40;3.40;;;6.60;91.30;;;;;;5030779;28;20030;-64
2022/09/29 01:27:25;;;;;;;8.52;3.88;;;6.50;90.90;;;;;;5031939;28;20022;-66
2022/09/29 01:30:05;;;;;;;6.28;3.20;;;6.50;90.50;;;;;;5028397;28;20026;-67
2022/09/29 01:32:39;;;;;;;8.15;3.47;;;6.50;90.40;;;;;;5027899;28;20022;-66
2022/09/29 01:35:39;;;;;;;5.10;3.20;;;6.50;90.20;;;;;;5027625;28;20017;-66
2022/09/29 01:38:17;;;;;;;6.72;3.45;;;6.50;89.60;;;;;;5028531;28;20191;-65
2022/09/29 01:41:26;;;;;;;5.57;2.90;;;6.50;89.70;;;;;;5032636;28;20017;-66
2022/09/29 01:44:17;;;;;;;7.13;3.28;;;6.50;89.50;;;;;;5023573;28;20108;-65
2022/09/29 01:46:55;;;;;;;7.13;2.97;;;6.50;89.50;;;;;;5033321;28;20025;-65
2022/09/29 01:49:24;;;;;;;6.32;3.50;;;6.60;89.00;;;;;;5028899;28;20068;-65
2022/09/29 01:51:58;;;;;;;7.82;3.15;;;6.60;89.80;;;;;;5031237;28;20095;-65
2022/09/29 01:54:42;;;;;;;5.32;3.13;;;6.60;89.70;;;;;;5023634;28;20129;-65
2022/09/29 01:57:34;;;;;;;5.95;3.25;;;6.60;89.90;;;;;;5030904;28;20033;-65
2022/09/29 02:00:09;;;;;;;6.18;3.45;;;6.60;89.70;;;;;;5028658;28;20041;-65
2022/09/29 02:02:56;;;;;;;6.53;3.40;;;6.60;89.00;;;;;;5035154;28;20083;-65
2022/09/29 02:05:59;;;;;;;6.50;3.42;;;6.60;89.10;;;;;;5032947;28;20060;-65
2022/09/29 02:08:33;;;;;;;5.93;3.55;;;6.60;88.70;;;;;;5001593;28;20069;-65
2022/09/29 02:11:01;;;;;;;;;;;6.60;89.00;;;;;;5020075;28;20113;-65
2022/09/29 02:13:34;;;;;;;7.32;3.13;;;6.60;88.50;;;;;;5032741;28;19909;-65
2022/09/29 02:16:01;;;;;;;5.35;3.13;;;6.60;88.80;;;;;;5028961;28;20100;-65
2022/09/29 02:18:33;;;;;;;7.03;3.50;;;6.60;88.90;;;;;;5027075;28;20030;-65
2022/09/29 02:21:00;;;;;;;5.82;3.38;;;6.70;88.70;;;;;;5032205;28;20018;-65
2022/09/29 02:23:26;;;;;;;6.30;3.70;;;6.70;88.90;;;;;;5031378;28;20071;-65
2022/09/29 02:25:54;;;;;;;6.03;2.97;;;6.70;89.10;;;;;;5026681;28;20029;-65
2022/09/29 02:28:20;;;;;;;6.72;3.30;;;6.70;88.80;;;;;;5030793;28;20029;-65
2022/09/29 02:30:48;;;;;;;6.13;3.50;;;6.70;88.60;;;;;;5028957;28;20321;-65
2022/09/29 02:33:22;;;;;;;5.80;3.60;;;6.70;88.60;;;;;;5030031;28;20361;-65
2022/09/29 02:36:01;;;;;;;7.00;3.80;;;6.60;88.70;;;;;;5027041;28;20042;-65
2022/09/29 02:39:22;;;;;;;5.88;3.58;;;6.60;88.50;;;;;;5028879;28;20117;-65
2022/09/29 02:42:01;;;;;;;5.57;3.80;;;6.60;88.30;;;;;;5004830;28;20048;-65
2022/09/29 02:44:32;;;;;;;5.70;3.33;;;6.60;87.80;;;;;;5023007;28;20033;-65
2022/09/29 02:47:31;;;;;;;7.15;3.72;;;6.70;87.30;;;;;;5030462;28;20021;-65
2022/09/29 02:50:06;;;;;;;7.75;4.15;;;6.70;87.30;;;;;;5023165;28;20029;-65
2022/09/29 02:52:59;;;;;;;7.35;4.22;;;6.70;87.20;;;;;;5030500;28;20044;-65
2022/09/29 02:55:33;;;;;;;7.88;3.55;;;6.60;87.10;;;;;;5021391;28;20045;-65
2022/09/29 02:58:12;;;;;;;9.10;4.05;;;6.70;87.00;;;;;;5030327;28;20434;-65
2022/09/29 03:00:39;;;;;;;7.32;3.70;;;6.70;87.30;;;;;;5028361;28;20318;-65
2022/09/29 03:03:04;;;;;;;4.93;3.10;;;6.70;87.00;;;;;;5026399;28;20072;-65
2022/09/29 03:05:32;;;;;;;6.05;3.22;;;6.70;86.80;;;;;;5025878;28;20061;-65
2022/09/29 03:07:57;;;;;;;6.45;3.20;;;6.70;86.80;;;;;;5033858;28;20034;-65
2022/09/29 03:10:23;;;;;;;8.93;3.50;;;6.70;86.90;;;;;;5032984;28;20052;-65
2022/09/29 03:12:48;;;;;;;7.25;3.08;;;6.70;86.10;;;;;;5028464;28;20037;-65
2022/09/29 03:15:14;;;;;;;4.85;2.63;;;6.80;85.40;;;;;;5021265;28;20030;-65
2022/09/29 03:17:40;;;;;;;5.75;3.25;;;6.90;85.20;;;;;;5019842;28;20076;-65
2022/09/29 03:20:07;;;;;;;5.82;3.38;;;6.90;86.30;;;;;;5026305;28;20029;-65
2022/09/29 03:22:33;;;;;;;7.18;3.75;;;6.80;85.90;;;;;;5025878;28;22113;-66
2022/09/29 03:24:58;;;;;;;6.28;3.65;;;6.80;85.80;;;;;;5033462;28;20079;-65
2022/09/29 03:27:24;;;;;;;6.63;3.78;;;6.80;85.30;;;;;;5026745;28;20067;-65
2022/09/29 03:29:50;;;;;;;6.68;4.15;;;6.70;85.10;;;;;;5027207;28;20410;-65
2022/09/29 03:32:16;;;;;;;5.45;3.42;;;6.70;84.80;;;;;;5028095;28;20063;-65
2022/09/29 03:34:42;;;;;;;7.10;3.67;;;6.60;84.30;;;;;;5018912;28;20121;-65
2022/09/29 03:37:08;;;;;;;7.32;3.75;;;6.60;84.00;;;;;;5026901;28;20124;-65
2022/09/29 03:39:33;;;;;;;11.95;4.30;;;6.60;83.30;;;;;;5016722;28;20026;-65
2022/09/29 03:41:59;;;;;;;5.90;3.80;;;6.50;83.30;;;;;;5018011;28;20030;-65
2022/09/29 03:44:25;;;;;;;6.65;4.10;;;6.50;83.10;;;;;;5024557;28;20091;-65
2022/09/29 03:46:51;;;;;;;6.30;3.95;;;6.50;82.30;;;;;;5023219;28;20886;-65
2022/09/29 03:49:16;;;;;;;6.55;4.07;;;6.50;82.20;;;;;;5022291;28;20176;-65
2022/09/29 03:51:43;;;;;;;6.85;3.80;;;6.50;81.50;;;;;;5023646;28;20041;-65
2022/09/29 03:54:09;;;;;;;5.53;3.22;;;6.60;81.30;;;;;;5024994;28;20025;-65
2022/09/29 03:56:36;;;;;;;9.00;4.05;;;6.60;81.00;;;;;;5029872;28;20056;-65
2022/09/29 03:59:04;;;;;;;7.30;4.15;;;6.60;81.00;;;;;;5026995;28;20040;-65
2022/09/29 04:01:30;;;;;;;6.40;3.58;;;6.60;80.60;;;;;;5028797;28;20033;-65
2022/09/29 04:03:57;;;;;;;5.97;3.97;;;6.60;80.60;;;;;;5028747;28;20029;-65
2022/09/29 04:06:22;;;;;;;6.88;3.47;;;6.70;80.50;;;;;;5026327;28;20025;-65
2022/09/29 04:08:48;;;;;;;7.55;3.50;;;6.70;80.40;;;;;;5030548;28;20026;-65
2022/09/29 04:11:14;;;;;;;5.07;3.20;;;6.70;80.40;;;;;;5027958;28;20026;-65
2022/09/29 04:13:40;;;;;;;6.47;3.72;;;6.70;81.60;;;;;;5028028;28;20501;-65
2022/09/29 04:16:06;;;;;;;5.80;3.63;;;6.70;81.70;;;;;;5028312;28;20060;-65
2022/09/29 04:18:32;;;;;;;9.00;4.22;;;6.70;82.10;;;;;;5028588;28;20327;-64
2022/09/29 04:20:59;;;;;;;6.38;3.50;;;6.70;82.50;;;;;;5028434;28;20017;-65
2022/09/29 04:23:29;;;;;;;5.38;3.15;;;6.60;82.30;;;;;;5030549;28;20071;-67
2022/09/29 04:25:56;;;;;;;7.78;3.70;;;6.60;82.30;;;;;;5022127;28;20050;-67
2022/09/29 04:28:22;;;;;;;7.65;3.22;;;6.60;82.40;;;;;;5026364;28;20052;-66
2022/09/29 04:30:48;;;;;;;7.35;3.50;;;6.60;82.40;;;;;;5028699;28;20121;-67
2022/09/29 04:33:14;;;;;;;5.97;3.35;;;6.60;81.90;;;;;;5027834;28;20108;-65
2022/09/29 04:35:40;;;;;;;5.90;3.42;;;6.60;81.90;;;;;;5025358;28;20326;-66
2022/09/29 04:38:07;;;;;;;6.78;3.20;;;6.60;81.20;;;;;;5030758;28;20025;-65
2022/09/29 04:40:33;;;;;;;5.75;3.15;;;6.60;81.40;;;;;;5029379;28;20442;-65
2022/09/29 04:42:59;;;;;;;5.53;2.53;;;6.60;81.10;;;;;;5029516;28;20083;-66
2022/09/29 04:45:31;;;;;;;8.38;3.10;;;6.60;81.20;;;;;;5030187;28;20096;-65
2022/09/29 04:47:57;;;;;;;5.78;3.20;;;6.60;80.90;;;;;;5032529;28;20448;-65
2022/09/29 04:50:23;;;;;;;6.28;3.65;;;6.60;80.70;;;;;;5028608;28;20033;-65
2022/09/29 04:52:49;;;;;;;6.82;3.35;;;6.50;80.70;;;;;;5032786;28;20030;-66
2022/09/29 04:55:14;;;;;;;7.22;3.45;;;6.50;80.60;;;;;;5031391;28;20132;-66
2022/09/29 04:57:42;;;;;;;5.70;2.90;;;6.50;79.90;;;;;;5031383;28;20029;-66
2022/09/29 05:00:08;;;;;;;5.70;3.10;;;6.40;80.60;;;;;;5027163;28;20117;-65
2022/09/29 05:02:35;;;;;;;7.03;3.72;;;6.40;79.00;;;;;;5031796;28;20040;-66
2022/09/29 05:05:01;;;;;;;4.60;2.55;;;6.50;79.30;;;;;;5029373;28;20028;-66
2022/09/29 05:07:27;;;;;;;8.85;3.42;;;6.50;78.80;;;;;;5031377;28;20322;-65
2022/09/29 05:09:52;;;;;;;5.45;2.63;;;6.50;78.80;;;;;;5026197;28;20022;-66
2022/09/29 05:12:18;;;;;;;5.72;2.70;;;6.60;78.90;;;;;;5023846;28;20067;-66
2022/09/29 05:14:44;;;;;;;5.53;2.80;;;6.60;79.20;;;;;;5027883;28;20040;-65
2022/09/29 05:17:09;;;;;;;6.40;2.60;;;6.60;79.90;;;;;;5028102;28;20049;-66
2022/09/29 05:19:35;;;;;;;4.50;2.85;;;6.60;80.50;;;;;;5030299;28;20030;-65
2022/09/29 05:22:01;;;;;;;4.30;2.20;;;6.60;80.50;;;;;;5028956;28;20472;-65
2022/09/29 05:24:27;;;;;;;5.90;2.45;;;6.60;81.30;;;;;;5031257;28;20022;-65
2022/09/29 05:26:53;;;;;;;5.03;2.38;;;6.60;82.30;;;;;;5026716;28;20029;-66
2022/09/29 05:29:22;;;;;;;7.57;3.85;;;6.60;82.80;;;;;;5023907;28;20079;-65
2022/09/29 05:31:49;;;;;;;6.18;2.75;;;6.60;83.40;;;;;;5028061;28;20095;-65
2022/09/29 05:34:15;;;;;;;4.97;2.42;;;6.70;84.30;;;;;;5024921;28;20406;-65
2022/09/29 05:36:40;;;;;;;6.22;2.60;;;6.60;84.60;;;;;;5032017;28;20060;-65
2022/09/29 05:39:06;;;;;;;7.10;2.70;;;6.60;84.60;;;;;;5027504;28;20461;-65
2022/09/29 05:41:32;;;;;;;4.95;2.80;;;6.60;84.80;;;;;;5028327;28;20028;-66
2022/09/29 05:44:00;;;;;;;7.47;3.05;;;6.70;84.80;;;;;;5025789;28;20037;-65
2022/09/29 05:46:26;;;;;;;5.55;3.00;;;6.70;85.30;;;;;;5033441;28;20061;-65
2022/09/29 05:48:52;;;;;;;8.85;3.28;;;6.70;85.20;;;;;;5027667;28;20427;-65
2022/09/29 05:51:20;;;;;;;5.70;2.83;;;6.70;85.50;;;;;;5030028;28;20037;-66
2022/09/29 05:53:46;;;;;;;6.43;2.38;;;6.80;86.20;;;;;;5034657;28;20116;-66
2022/09/29 05:56:15;;;;;;;5.72;1.95;;;6.80;86.40;;;;;;5036727;28;20087;-65
2022/09/29 05:58:41;;;;;;;6.30;2.80;;;6.80;86.90;;;;;;5034863;28;20028;-65
2022/09/29 06:01:07;;;;;;;10.07;5.78;;;6.80;88.30;;;;;;5036750;28;20096;-65
2022/09/29 06:03:34;;;;;;;9.35;6.63;;;6.90;88.50;;;;;;5032911;28;20029;-65
2022/09/29 06:06:12;;;;;;;10.65;5.53;;;6.90;88.20;;;;;;5026014;28;20076;-65
2022/09/29 06:08:38;;;;;;;8.55;4.22;;;6.90;87.60;;;;;;5031186;28;20112;-65
2022/09/29 06:11:05;;;;;;;5.13;3.33;;;6.90;88.10;;;;;;5032577;28;20487;-65
2022/09/29 06:13:31;;;;;;;7.40;2.65;;;6.90;88.10;;;;;;5033938;28;20124;-66
2022/09/29 06:16:00;;;;;;;5.47;3.40;;;7.00;87.40;;;;;;5035522;28;20034;-66
2022/09/29 06:18:26;;;;;;;5.55;3.58;;;7.00;88.30;;;;;;5034989;28;20112;-66
2022/09/29 06:20:51;;;;;;;7.63;4.30;;;7.10;88.20;;;;;;5035414;28;20101;-66
2022/09/29 06:23:17;;;;;;;9.48;5.00;;;7.20;89.40;;;;;;5036218;28;20377;-66
2022/09/29 06:25:43;;;;;;;11.07;5.28;;;7.30;90.20;;;;;;5033061;28;20464;-66
2022/09/29 06:28:08;;;;;;;9.32;5.68;;;7.40;91.50;;;;;;5035161;28;20025;-65
2022/09/29 06:30:37;;;;;;;9.07;5.18;;;7.40;92.70;;;;;;5035270;28;20449;-66
2022/09/29 06:33:02;;;;;;;7.65;5.45;;;7.50;93.00;;;;;;5035501;28;20025;-66
2022/09/29 06:38:17;;;;;;;9.65;5.85;;;7.70;94.10;;;;;;5033809;28;20037;-66
2022/09/29 06:40:42;;;;;;;9.68;6.07;;;7.80;94.10;;;;;;5033355;28;20147;-65
2022/09/29 06:43:10;;;;;;;9.13;6.78;;;7.90;94.90;;;;;;5035257;28;20033;-65
2022/09/29 06:45:35;;;;;;;12.35;7.88;;;7.90;95.40;;;;;;5034040;28;20323;-65
2022/09/29 06:48:02;;;;;;;10.02;7.05;;;8.00;95.30;;;;;;5034825;28;20033;-65
2022/09/29 06:50:27;;;;;;;12.45;9.93;;;8.00;94.90;;;;;;5033991;28;20026;-65
2022/09/29 06:52:53;;;;;;;52.63;39.75;;;8.10;95.50;;;;;;5035702;28;20034;-66
2022/09/29 06:55:19;;;;;;;21.35;16.10;;;8.20;96.50;;;;;;5033185;28;20151;-65
2022/09/29 06:57:44;;;;;;;11.05;6.75;;;8.20;96.70;;;;;;5034819;28;20097;-65
2022/09/29 07:00:10;;;;;;;7.03;4.72;;;8.30;97.20;;;;;;5033670;28;20077;-66
2022/09/29 07:02:36;;;;;;;8.48;4.85;;;8.30;97.40;;;;;;5034827;28;20438;-66
2022/09/29 07:05:02;;;;;;;7.80;5.28;;;8.40;97.40;;;;;;5033185;28;20029;-66
2022/09/29 07:07:27;;;;;;;9.98;4.80;;;8.50;98.00;;;;;;5035617;28;20029;-66
2022/09/29 07:09:53;;;;;;;8.07;4.50;;;8.50;98.00;;;;;;5033830;28;20033;-65
2022/09/29 07:12:19;;;;;;;7.25;4.90;;;8.60;98.00;;;;;;5034658;28;20029;-65
2022/09/29 07:14:44;;;;;;;5.85;3.55;;;8.70;98.00;;;;;;5032964;28;20025;-65
2022/09/29 07:17:12;;;;;;;7.40;2.90;;;8.80;98.00;;;;;;5035697;28;20105;-68
2022/09/29 07:19:38;;;;;;;4.63;2.60;;;8.70;98.00;;;;;;5031663;28;20029;-67
2022/09/29 07:22:04;;;;;;;7.07;3.08;;;8.70;97.90;;;;;;5034727;28;20484;-67
2022/09/29 07:24:30;;;;;;;5.55;3.30;;;8.80;98.00;;;;;;5032689;28;20026;-67
2022/09/29 07:26:55;;;;;;;8.77;4.00;;;8.90;98.00;;;;;;5034548;28;20048;-66
2022/09/29 07:29:21;;;;;;;5.43;3.65;;;8.90;98.00;;;;;;5034293;28;20377;-66
2022/09/29 07:31:47;;;;;;;8.63;4.28;;;9.00;98.00;;;;;;5035564;28;20034;-66
2022/09/29 07:34:13;;;;;;;51.55;24.98;;;9.00;98.00;;;;;;5031714;28;20026;-66
2022/09/29 07:36:38;;;;;;;12.05;8.07;;;9.00;98.00;;;;;;5034457;28;20473;-66
2022/09/29 07:39:04;;;;;;;18.70;12.48;;;9.00;98.00;;;;;;5033260;28;20030;-66
2022/09/29 07:41:29;;;;;;;26.60;15.15;;;8.90;98.00;;;;;;5035541;28;20414;-66
2022/09/29 07:43:55;;;;;;;12.63;8.23;;;8.90;97.80;;;;;;5033598;28;20048;-66
2022/09/29 07:46:21;;;;;;;16.60;7.68;;;9.00;97.10;;;;;;5034442;28;20461;-66
2022/09/29 07:48:47;;;;;;;10.85;6.80;;;9.10;98.00;;;;;;5034118;28;20030;-67
2022/09/29 07:51:17;;;;;;;11.70;7.38;;;9.10;98.00;;;;;;5034347;28;20100;-66
2022/09/29 07:53:44;;;;;;;12.10;6.68;;;9.10;98.00;;;;;;5035168;28;20093;-66
2022/09/29 07:56:16;;;;;;;16.40;10.05;;;9.20;97.90;;;;;;5039064;28;20421;-66
2022/09/29 07:58:42;;;;;;;13.18;9.23;;;9.50;98.00;;;;;;5038338;28;20052;-66
2022/09/29 08:01:11;;;;;;;11.45;7.45;;;9.60;98.00;;;;;;5037529;28;20104;-66
2022/09/29 08:03:42;;;;;;;9.70;6.93;;;9.60;98.00;;;;;;5036433;28;20064;-66
2022/09/29 08:06:09;;;;;;;13.68;7.88;;;9.70;98.00;;;;;;5020087;28;20026;-66
2022/09/29 08:08:36;;;;;;;13.68;8.68;;;9.80;98.00;;;;;;5036591;28;20033;-66
2022/09/29 08:11:08;;;;;;;14.93;8.77;;;9.70;98.00;;;;;;5036307;28;20034;-66
2022/09/29 08:13:35;;;;;;;12.63;8.43;;;9.60;98.00;;;;;;5037606;28;20029;-66
2022/09/29 08:16:02;;;;;;;14.70;8.45;;;9.60;98.00;;;;;;5037211;28;20057;-66
2022/09/29 08:18:28;;;;;;;10.43;5.72;;;9.70;98.00;;;;;;5027815;28;20112;-66
2022/09/29 08:20:57;;;;;;;10.70;5.35;;;9.80;98.00;;;;;;5018976;28;20025;-66
2022/09/29 08:23:23;;;;;;;7.93;4.68;;;9.90;98.00;;;;;;5026695;28;20026;-66
2022/09/29 08:25:57;;;;;;;7.40;4.45;;;10.10;98.00;;;;;;5034037;28;20030;-66
2022/09/29 08:28:23;;;;;;;8.98;5.93;;;10.30;98.00;;;;;;5036830;28;20037;-66
2022/09/29 08:30:48;;;;;;;10.52;6.60;;;10.50;98.00;;;;;;5037290;28;20099;-66
2022/09/29 08:33:15;;;;;;;12.18;6.57;;;10.30;98.00;;;;;;5038565;28;20037;-66
2022/09/29 08:35:41;;;;;;;12.73;7.78;;;10.20;98.00;;;;;;5038042;28;20434;-67
2022/09/29 08:38:06;;;;;;;9.02;6.32;;;10.10;98.00;;;;;;5038280;28;20075;-66
2022/09/29 08:40:33;;;;;;;10.93;6.25;;;10.20;98.00;;;;;;5035199;28;20053;-66
2022/09/29 08:43:21;;;;;;;8.15;5.13;;;10.20;98.00;;;;;;5038151;28;20091;-66
2022/09/29 08:45:55;;;;;;;8.25;5.10;;;10.50;98.00;;;;;;5029723;28;20036;-66
2022/09/29 08:48:23;;;;;;;;;;;10.80;98.00;;;;;;5037466;28;20069;-66
2022/09/29 08:50:56;;;;;;;6.50;4.25;;;11.40;98.00;;;;;;5036860;28;19905;-66
2022/09/29 08:53:23;;;;;;;8.00;4.78;;;11.70;98.00;;;;;;5020377;28;20487;-66
2022/09/29 08:56:12;;;;;;;8.65;4.18;;;11.90;98.00;;;;;;5036764;28;20109;-66
2022/09/29 08:58:38;;;;;;;6.38;3.30;;;12.00;98.00;;;;;;5037723;28;20029;-66
2022/09/29 09:01:28;;;;;;;8.18;3.72;;;12.10;98.00;;;;;;5037985;28;20100;-66
2022/09/29 09:04:10;;;;;;;7.72;3.67;;;12.40;97.90;;;;;;5036489;28;20037;-66
2022/09/29 09:06:51;;;;;;;7.03;3.75;;;12.40;96.80;;;;;;5035804;28;20445;-66
2022/09/29 09:09:32;;;;;;;9.45;4.30;;;12.70;96.50;;;;;;5035693;28;20033;-66
2022/09/29 09:12:17;;;;;;;6.70;3.80;;;12.90;95.00;;;;;;5036028;28;20029;-66
2022/09/29 09:14:44;;;;;;;;;;;13.40;94.00;;;;;;5037803;28;20022;-66
2022/09/29 09:17:42;;;;;;;7.45;2.75;;;13.50;92.50;;;;;;5037595;28;19909;-66
2022/09/29 09:20:33;;;;;;;9.25;4.13;;;13.50;90.60;;;;;;5035486;28;20046;-66
2022/09/29 09:23:03;;;;;;;10.05;3.40;;;13.10;92.50;;;;;;5017559;28;20026;-66
2022/09/29 09:25:37;;;;;;;6.18;3.38;;;12.30;94.70;;;;;;5016504;28;20053;-66
2022/09/29 09:28:17;;;;;;;6.55;3.15;;;11.70;97.20;;;;;;5035440;28;20040;-66
2022/09/29 09:31:12;;;;;;;6.85;3.22;;;11.30;98.00;;;;;;5036188;28;20103;-66
2022/09/29 09:33:43;;;;;;;6.57;3.72;;;11.30;98.00;;;;;;5037220;28;20377;-66
2022/09/29 09:36:39;;;;;;;6.43;3.13;;;11.20;98.00;;;;;;5034811;28;20044;-66
2022/09/29 09:39:18;;;;;;;6.72;3.70;;;11.20;98.00;;;;;;5033011;28;20111;-65
2022/09/29 09:41:47;;;;;;;9.13;3.90;;;11.20;98.00;;;;;;5037077;28;20032;-65
2022/09/29 09:44:24;;;;;;;7.93;4.35;;;11.10;98.00;;;;;;5037033;28;20406;-66
2022/09/29 09:47:15;;;;;;;9.32;5.38;;;11.10;98.00;;;;;;5035971;28;20032;-65
2022/09/29 09:49:51;;;;;;;7.63;4.05;;;11.30;98.00;;;;;;5028977;28;20036;-65
2022/09/29 09:52:31;;;;;;;6.57;3.92;;;11.30;98.00;;;;;;5036615;28;20024;-66
2022/09/29 09:55:03;;;;;;;7.90;4.00;;;11.10;98.00;;;;;;5035712;28;20079;-66
2022/09/29 09:57:34;;;;;;;5.57;3.60;;;11.20;98.00;;;;;;5036513;28;20026;-65
2022/09/29 10:00:12;;;;;;;7.88;4.10;;;11.30;98.00;;;;;;5036651;28;20437;-66
2022/09/29 10:02:47;;;;;;;8.57;5.18;;;11.50;98.00;;;;;;5035462;28;20029;-65
2022/09/29 10:05:16;;;;;;;11.20;4.80;;;11.70;98.00;;;;;;5034780;28;20024;-65
2022/09/29 10:07:42;;;;;;;9.07;5.22;;;11.70;98.00;;;;;;5036743;28;20026;-64
2022/09/29 10:10:21;;;;;;;7.93;4.30;;;11.80;98.00;;;;;;5034208;28;20299;-64
2022/09/29 10:12:54;;;;;;;9.27;4.45;;;12.00;98.00;;;;;;5036652;28;20048;-66
2022/09/29 10:15:28;;;;;;;7.25;4.95;;;12.10;97.30;;;;;;5035684;28;20052;-67
2022/09/29 10:18:08;;;;;;;8.15;4.40;;;11.90;97.90;;;;;;5034242;28;20033;-66
2022/09/29 10:20:37;;;;;;;7.18;4.57;;;11.90;96.60;;;;;;5035250;28;20029;-66
2022/09/29 10:23:24;;;;;;;9.25;5.40;;;12.10;96.60;;;;;;5036544;28;20020;-66
2022/09/29 10:26:10;;;;;;;9.48;5.60;;;12.10;97.40;;;;;;5034667;28;20036;-66
2022/09/29 10:28:59;;;;;;;8.82;5.43;;;12.10;97.40;;;;;;5034334;28;20116;-66
2022/09/29 10:31:28;;;;;;;8.63;4.80;;;12.10;96.50;;;;;;5036200;28;20330;-66
2022/09/29 10:34:02;;;;;;;8.38;4.93;;;12.20;96.40;;;;;;5034778;28;20029;-65
2022/09/29 10:36:47;;;;;;;8.05;5.60;;;12.00;96.20;;;;;;5035778;28;20333;-66
2022/09/29 10:39:40;;;;;;;7.53;5.13;;;11.80;97.30;;;;;;5034692;28;20026;-65
2022/09/29 10:42:30;;;;;;;7.80;4.88;;;11.70;97.20;;;;;;5035181;28;20031;-65
2022/09/29 10:45:21;;;;;;;6.38;4.18;;;11.80;98.00;;;;;;5035934;28;20049;-65
2022/09/29 10:48:05;;;;;;;7.03;4.50;;;12.00;96.90;;;;;;5034409;28;20096;-65
2022/09/29 10:50:34;;;;;;;10.00;4.53;;;12.10;96.90;;;;;;5035317;28;20033;-65
2022/09/29 10:53:24;;;;;;;7.93;4.65;;;12.40;96.80;;;;;;5034972;28;20167;-65
2022/09/29 10:55:53;;;;;;;7.38;4.38;;;12.10;96.30;;;;;;5034374;28;20526;-66
2022/09/29 10:58:29;;;;;;;7.45;4.10;;;12.20;96.50;;;;;;5034730;28;20025;-65
2022/09/29 11:01:09;;;;;;;8.60;4.00;;;12.50;96.30;;;;;;5034791;28;20021;-65
2022/09/29 11:03:39;;;;;;;6.18;3.67;;;13.10;94.80;;;;;;5032055;28;20320;-66
2022/09/29 11:06:10;;;;;;;6.57;3.72;;;13.60;92.40;;;;;;5035885;28;20068;-65
2022/09/29 11:08:56;;;;;;;8.05;3.83;;;13.70;92.40;;;;;;5033327;28;20034;-65
2022/09/29 11:11:25;;;;;;;7.80;3.70;;;13.80;91.30;;;;;;5033886;28;20033;-65
2022/09/29 11:13:51;;;;;;;8.32;4.72;;;13.90;90.90;;;;;;5035789;28;20064;-65
2022/09/29 11:16:32;;;;;;;6.05;3.80;;;14.00;91.60;;;;;;5035764;28;20036;-66
2022/09/29 11:19:07;;;;;;;8.20;3.00;;;14.30;90.40;;;;;;5035796;28;20036;-66
2022/09/29 11:22:10;;;;;;;7.88;3.88;;;14.20;90.20;;;;;;5035076;28;20101;-65
2022/09/29 11:24:57;;;;;;;8.02;3.70;;;13.90;90.50;;;;;;5033353;28;20323;-65
2022/09/29 11:27:47;;;;;;;7.93;3.60;;;13.70;90.70;;;;;;5038062;28;20029;-65
2022/09/29 11:30:36;;;;;;;6.30;3.42;;;13.80;92.20;;;;;;5039524;28;20026;-65
2022/09/29 11:33:22;;;;;;;7.57;3.70;;;14.30;91.60;;;;;;5035004;28;20057;-65
2022/09/29 11:36:00;;;;;;;6.28;2.70;;;14.40;89.70;;;;;;5037362;28;20036;-65
2022/09/29 11:38:26;;;;;;;5.55;2.95;;;14.60;89.40;;;;;;5037242;28;20337;-65
2022/09/29 11:41:04;;;;;;;8.10;3.28;;;15.00;88.40;;;;;;5035795;28;20033;-65
2022/09/29 11:43:46;;;;;;;5.88;3.13;;;15.30;86.80;;;;;;5038233;28;20028;-65
2022/09/29 11:46:36;;;;;;;11.30;6.75;;;14.80;86.80;;;;;;5038346;28;20046;-65
2022/09/29 11:49:27;;;;;;;6.80;3.30;;;14.60;87.90;;;;;;5039138;28;20025;-65
2022/09/29 11:52:10;;;;;;;7.93;3.42;;;14.60;87.10;;;;;;5038311;28;20040;-65
2022/09/29 11:54:48;;;;;;;21.63;10.00;;;14.40;87.70;;;;;;5038053;28;20057;-65
2022/09/29 11:57:23;;;;;;;8.48;3.60;;;14.40;87.20;;;;;;5037050;28;20025;-65
2022/09/29 12:00:05;;;;;;;5.85;3.10;;;14.40;86.40;;;;;;5038854;28;20061;-65
2022/09/29 12:02:40;;;;;;;5.75;2.53;;;14.30;86.20;;;;;;5022246;28;20053;-65
2022/09/29 12:05:56;;;;;;;4.57;2.78;;;14.30;87.40;;;;;;5035240;28;20021;-65
2022/09/29 12:08:39;;;;;;;6.13;2.30;;;15.00;86.70;;;;;;5034325;28;20045;-66
2022/09/29 12:11:21;;;;;;;6.60;2.45;;;15.40;83.80;;;;;;5038172;28;20021;-65
2022/09/29 12:14:17;;;;;;;5.25;2.25;;;16.00;81.70;;;;;;5037163;28;20373;-65
2022/09/29 12:16:56;;;;;;;5.03;2.40;;;15.80;82.00;;;;;;5037727;28;20040;-65
2022/09/29 12:19:25;;;;;;;7.65;2.53;;;15.80;81.50;;;;;;5028271;28;20025;-65
2022/09/29 12:21:54;;;;;;;5.82;2.15;;;15.20;82.00;;;;;;5034226;28;20330;-65
2022/09/29 12:24:29;;;;;;;5.80;2.30;;;14.90;84.60;;;;;;5033304;28;20025;-65
2022/09/29 12:26:57;;;;;;;4.97;2.42;;;14.50;84.10;;;;;;5035645;28;20024;-65
2022/09/29 12:29:55;;;;;;;7.70;2.60;;;14.20;85.30;;;;;;5038675;28;20044;-65
2022/09/29 12:32:50;;;;;;;5.72;2.60;;;14.10;85.80;;;;;;5037945;28;20021;-65
2022/09/29 12:35:30;;;;;;;6.28;2.83;;;14.00;87.50;;;;;;5036819;28;20041;-65
2022/09/29 12:37:59;;;;;;;7.25;3.25;;;14.00;87.30;;;;;;5037383;28;20041;-65
2022/09/29 12:40:35;;;;;;;5.60;2.55;;;14.10;87.80;;;;;;5036239;28;20022;-65
2022/09/29 12:43:14;;;;;;;7.05;2.75;;;14.50;86.30;;;;;;5034492;28;20032;-65
2022/09/29 12:45:47;;;;;;;5.22;1.98;;;14.80;85.10;;;;;;5036604;28;20029;-65
2022/09/29 12:48:24;;;;;;;6.13;2.50;;;15.40;84.40;;;;;;5038045;28;20369;-65
2022/09/29 12:51:13;;;;;;;6.22;2.45;;;16.10;82.10;;;;;;5023194;28;20419;-65
2022/09/29 12:53:47;;;;;;;5.88;2.20;;;16.00;81.90;;;;;;5017170;28;20037;-65
2022/09/29 12:57:14;;;;;;;6.93;2.70;;;15.50;82.10;;;;;;5033887;28;20095;-65
2022/09/29 13:00:01;;;;;;;4.88;2.00;;;15.40;81.90;;;;;;5003590;28;20049;-64
2022/09/29 13:02:51;;;;;;;6.28;2.35;;;14.90;83.90;;;;;;5036974;28;20076;-65
2022/09/29 13:05:32;;;;;;;4.93;2.03;;;14.40;84.60;;;;;;5036852;28;20415;-65
2022/09/29 13:08:22;;;;;;;4.25;2.13;;;14.30;86.00;;;;;;5037863;28;20039;-67
2022/09/29 13:10:51;;;;;;;14.32;7.10;;;14.30;84.40;;;;;;5035713;28;20075;-67
2022/09/29 13:13:38;;;;;;;7.00;3.17;;;14.30;84.60;;;;;;5037786;28;20112;-66
2022/09/29 13:16:16;;;;;;;5.78;2.50;;;14.10;84.70;;;;;;5035903;28;20371;-66
2022/09/29 13:18:58;;;;;;;3.75;1.92;;;14.00;85.80;;;;;;5037335;28;20029;-66
2022/09/29 13:22:05;;;;;;;4.70;1.98;;;14.30;85.90;;;;;;5034765;28;20022;-65
2022/09/29 13:24:33;;;;;;;8.73;2.70;;;14.90;85.60;;;;;;5031217;28;20060;-65
2022/09/29 13:27:29;;;;;;;4.75;1.80;;;15.60;83.20;;;;;;5037432;28;20052;-65